Sugarhill, Georgia
Current Conditions -  °F | °C
As of 8:45 PM on Wednesday 26 Nov 2014 (Local Time) from KLZU Reporting Station
Clear Clear  
Wind Chill: 41°   Ceiling: Unl
Heat Index: 41°   Visibility: 10mi
Dew Point: 25°   Wind: 0mph
Humidity: 53%   Direction: NA
Pressure: 30.06"   Gusts: NA
Location:  34.1183°N, 84.0234°W
Report Text: KLZU 270145Z 00000KT 10SM CLR 05/M04 A3006 RMK CLOSING WX LL
Loading
Personal Weather Stations






























Interactive Weather Map New forecast layout! Learn more

10-Day Weather Forecast

Advertisements
Track Severe Weather on mobile